Time;durP1;ratioP1;P1;durP2;ratioP2;P2;SDS_P1;SDS_P2;PMS_P1;PMS_P2;Temp;Humidity;BMP_temperature;BMP_pressure;BME280_temperature;BME280_humidity;BME280_pressure;Samples;Min_cycle;Max_cycle;Signal;HPM_P1;HPM_P2
2022/07/21 00:00:33;;;;;;;20.92;7.68;;;21.40;99.90;;;;;;4973958;28;20445;-68
2022/07/21 00:02:59;;;;;;;18.25;7.00;;;21.40;99.90;;;;;;4974169;28;20361;-68
2022/07/21 00:05:25;;;;;;;13.73;7.15;;;21.40;99.90;;;;;;4974460;28;20063;-67
2022/07/21 00:07:52;;;;;;;18.98;6.95;;;21.30;99.90;;;;;;4974007;28;20034;-71
2022/07/21 00:10:18;;;;;;;13.77;6.43;;;21.40;99.90;;;;;;4974375;28;20057;-67
2022/07/21 00:12:43;;;;;;;18.10;6.82;;;21.40;99.90;;;;;;4974179;28;20377;-70
2022/07/21 00:15:10;;;;;;;15.80;6.93;;;21.40;99.90;;;;;;4973799;28;20045;-67
2022/07/21 00:17:36;;;;;;;17.70;6.85;;;21.40;99.90;;;;;;4974136;28;20023;-67
2022/07/21 00:20:03;;;;;;;18.27;7.00;;;21.50;99.90;;;;;;4974204;28;20038;-67
2022/07/21 00:22:29;;;;;;;17.27;7.57;;;21.50;99.90;;;;;;4973874;28;20027;-69
2022/07/21 00:24:54;;;;;;;15.48;7.10;;;21.50;99.90;;;;;;4973984;28;20472;-67
2022/07/21 00:27:20;;;;;;;17.90;7.25;;;21.50;99.90;;;;;;4973690;28;20048;-68
2022/07/21 00:29:46;;;;;;;18.30;7.95;;;21.50;99.90;;;;;;4973598;28;20391;-67
2022/07/21 00:32:11;;;;;;;16.20;6.28;;;21.50;99.90;;;;;;4974040;28;20027;-70
2022/07/21 00:34:37;;;;;;;16.85;8.50;;;21.40;99.90;;;;;;4974156;28;20034;-67
2022/07/21 00:37:03;;;;;;;18.42;7.47;;;21.40;99.90;;;;;;4973495;28;20031;-67
2022/07/21 00:39:28;;;;;;;18.92;7.80;;;21.40;99.90;;;;;;4973574;28;20066;-66
2022/07/21 00:41:54;;;;;;;17.30;7.47;;;21.40;99.90;;;;;;4973591;28;20074;-67
2022/07/21 00:44:25;;;;;;;22.27;7.97;;;21.40;99.90;;;;;;4973104;28;20067;-67
2022/07/21 00:46:51;;;;;;;15.10;7.80;;;21.40;99.90;;;;;;4973538;28;20045;-69
2022/07/21 00:49:18;;;;;;;18.75;8.32;;;21.40;99.90;;;;;;4973475;28;20109;-68
2022/07/21 00:51:44;;;;;;;19.45;9.00;;;21.40;99.90;;;;;;4973451;28;20070;-68
2022/07/21 00:54:10;;;;;;;19.95;8.55;;;21.40;99.90;;;;;;4973610;28;20385;-67
2022/07/21 00:56:36;;;;;;;20.27;9.02;;;21.40;99.90;;;;;;4973105;28;20137;-67
2022/07/21 00:59:02;;;;;;;21.45;9.43;;;21.40;99.90;;;;;;4973318;28;20434;-69
2022/07/21 01:01:27;;;;;;;18.73;9.77;;;21.40;99.90;;;;;;4968103;28;20027;-67
2022/07/21 01:03:53;;;;;;;20.20;9.50;;;21.40;99.90;;;;;;4972347;28;20425;-67
2022/07/21 01:06:18;;;;;;;19.58;9.57;;;21.30;99.90;;;;;;4972850;28;20018;-66
2022/07/21 01:08:44;;;;;;;17.50;8.80;;;21.30;99.90;;;;;;4973348;28;20093;-66
2022/07/21 01:11:10;;;;;;;20.40;9.98;;;21.30;99.90;;;;;;4973480;28;20018;-67
2022/07/21 01:13:41;;;;;;;19.77;9.45;;;21.20;99.90;;;;;;4972999;28;20022;-69
2022/07/21 01:16:08;;;;;;;20.60;9.45;;;21.20;99.90;;;;;;4973362;28;20025;-66
2022/07/21 01:18:35;;;;;;;17.63;10.13;;;21.20;99.90;;;;;;4973341;28;20107;-66
2022/07/21 01:21:08;;;;;;;20.65;11.20;;;21.20;99.90;;;;;;4975645;28;20022;-67
2022/07/21 01:23:34;;;;;;;20.17;11.02;;;21.20;99.90;;;;;;4976185;28;20046;-67
2022/07/21 01:25:59;;;;;;;22.88;11.82;;;21.10;99.90;;;;;;4977232;28;20026;-68
2022/07/21 01:28:25;;;;;;;21.58;12.48;;;21.10;99.90;;;;;;4976822;28;20043;-67
2022/07/21 01:30:50;;;;;;;21.20;12.73;;;21.10;99.90;;;;;;4977465;28;20054;-69
2022/07/21 01:33:16;;;;;;;22.92;13.68;;;21.10;99.90;;;;;;4976918;28;20042;-68
2022/07/21 01:35:42;;;;;;;20.98;13.50;;;21.10;99.90;;;;;;4977296;28;20034;-67
2022/07/21 01:41:28;;;;;;;21.40;13.70;;;21.10;99.90;;;;;;4977282;28;20451;-67
2022/07/21 01:43:44;;;;;;;26.15;15.25;;;21.10;99.90;;;;;;4976695;28;20034;-65
2022/07/21 01:46:13;;;;;;;22.90;14.63;;;21.10;99.90;;;;;;4976680;28;20050;-66
2022/07/21 01:48:43;;;;;;;24.08;15.65;;;21.10;99.90;;;;;;4976597;28;20046;-67
2022/07/21 01:51:09;;;;;;;24.35;15.60;;;21.00;99.90;;;;;;4976332;28;20054;-67
2022/07/21 01:53:35;;;;;;;26.30;16.55;;;21.00;99.90;;;;;;4976553;28;20462;-67
2022/07/21 01:56:00;;;;;;;24.95;17.48;;;21.00;99.90;;;;;;4976960;28;20038;-67
2022/07/21 01:58:26;;;;;;;22.60;16.20;;;21.00;99.90;;;;;;4976506;28;20023;-68
2022/07/21 02:00:51;;;;;;;25.40;16.75;;;21.00;99.90;;;;;;4976575;28;20226;-68
2022/07/21 02:03:17;;;;;;;22.67;15.50;;;21.00;99.90;;;;;;4976169;28;20082;-68
2022/07/21 02:05:42;;;;;;;24.98;17.55;;;21.00;99.90;;;;;;4976522;28;20038;-67
2022/07/21 02:08:08;;;;;;;25.17;16.95;;;21.00;99.90;;;;;;4976386;28;20077;-69
2022/07/21 02:10:35;;;;;;;26.60;16.50;;;21.00;99.90;;;;;;4976381;28;20453;-68
2022/07/21 02:13:02;;;;;;;26.80;17.58;;;20.90;99.90;;;;;;4976255;28;20346;-67
2022/07/21 02:15:28;;;;;;;26.52;16.60;;;20.90;99.90;;;;;;4979399;28;20026;-66
2022/07/21 02:17:54;;;;;;;27.88;17.70;;;20.90;99.90;;;;;;4979923;28;20031;-65
2022/07/21 02:20:19;;;;;;;28.50;17.52;;;20.90;99.90;;;;;;4976286;28;20029;-67
2022/07/21 02:22:45;;;;;;;26.55;18.15;;;20.90;99.90;;;;;;4975966;28;20380;-68
2022/07/21 02:25:11;;;;;;;27.23;18.27;;;20.80;99.90;;;;;;4976090;28;20022;-69
2022/07/21 02:27:37;;;;;;;27.75;18.58;;;20.80;99.90;;;;;;4976160;28;20390;-67
2022/07/21 02:30:03;;;;;;;33.40;20.65;;;20.70;99.90;;;;;;4976139;28;20199;-67
2022/07/21 02:32:29;;;;;;;30.85;20.60;;;20.60;99.90;;;;;;4975923;28;20022;-68
2022/07/21 02:34:54;;;;;;;27.48;19.45;;;20.50;99.90;;;;;;4974328;28;20030;-67
2022/07/21 02:37:20;;;;;;;30.63;20.20;;;20.50;99.90;;;;;;4975862;28;20022;-67
2022/07/21 02:39:45;;;;;;;32.20;21.00;;;20.50;99.90;;;;;;4975870;28;20046;-68
2022/07/21 02:42:11;;;;;;;33.47;21.55;;;20.40;99.90;;;;;;4975896;28;20062;-66
2022/07/21 02:44:36;;;;;;;33.67;21.98;;;20.40;99.90;;;;;;4975864;28;20673;-68
2022/07/21 02:47:03;;;;;;;31.50;21.63;;;20.30;99.90;;;;;;4974129;28;20043;-67
2022/07/21 02:49:29;;;;;;;34.92;23.00;;;20.30;99.90;;;;;;4975122;28;20094;-70
2022/07/21 02:51:54;;;;;;;33.03;21.70;;;20.20;99.90;;;;;;4975083;28;20035;-67
2022/07/21 02:54:20;;;;;;;35.38;22.60;;;20.10;99.90;;;;;;4975585;28;20117;-67
2022/07/21 02:56:45;;;;;;;34.03;23.00;;;20.00;99.90;;;;;;4975879;28;20062;-69
2022/07/21 02:59:11;;;;;;;34.35;23.30;;;20.00;99.90;;;;;;4975525;28;20110;-67
2022/07/21 03:01:37;;;;;;;33.40;22.05;;;19.90;99.90;;;;;;4975777;28;20451;-67
2022/07/21 03:04:02;;;;;;;38.95;25.40;;;19.90;99.90;;;;;;4975288;28;20473;-69
2022/07/21 03:06:28;;;;;;;35.20;22.75;;;19.80;99.90;;;;;;4975318;28;20027;-67
2022/07/21 03:08:53;;;;;;;34.42;23.17;;;19.80;99.90;;;;;;4975250;28;20138;-67
2022/07/21 03:11:19;;;;;;;36.88;23.88;;;19.70;99.90;;;;;;4975800;28;20015;-67
2022/07/21 03:13:44;;;;;;;37.88;22.67;;;19.70;99.90;;;;;;4975081;28;20034;-67
2022/07/21 03:16:10;;;;;;;37.58;25.25;;;19.60;99.90;;;;;;4974000;28;20050;-67
2022/07/21 03:18:36;;;;;;;36.28;25.65;;;19.60;99.90;;;;;;4975210;28;20133;-67
2022/07/21 03:21:01;;;;;;;36.95;21.88;;;19.60;99.90;;;;;;4975073;28;20031;-67
2022/07/21 03:23:27;;;;;;;37.30;24.23;;;19.60;99.90;;;;;;4975179;28;20029;-67
2022/07/21 03:25:52;;;;;;;43.90;27.45;;;19.60;99.90;;;;;;4975131;28;20038;-66
2022/07/21 03:28:18;;;;;;;40.03;24.65;;;19.50;99.90;;;;;;4974716;28;20039;-72
2022/07/21 03:30:44;;;;;;;39.22;24.52;;;19.50;99.90;;;;;;4974628;28;20026;-69
2022/07/21 03:33:09;;;;;;;39.38;26.95;;;19.50;99.90;;;;;;4974632;28;20027;-67
2022/07/21 03:35:37;;;;;;;38.50;25.80;;;19.50;99.90;;;;;;4975071;28;20031;-67
2022/07/21 03:38:04;;;;;;;40.65;25.92;;;19.50;99.90;;;;;;4974863;28;20035;-68
2022/07/21 03:40:32;;;;;;;39.47;23.58;;;19.50;99.90;;;;;;4973386;28;20062;-68
2022/07/21 03:43:00;;;;;;;39.20;24.75;;;19.50;99.90;;;;;;4973606;28;20031;-69
2022/07/21 03:45:30;;;;;;;37.40;25.27;;;19.50;99.90;;;;;;4974646;28;20055;-67
2022/07/21 03:47:59;;;;;;;39.53;25.23;;;19.50;99.90;;;;;;4973157;28;20077;-67
2022/07/21 03:50:25;;;;;;;41.03;26.27;;;19.50;99.90;;;;;;4973313;28;20109;-67
2022/07/21 03:52:51;;;;;;;44.40;28.40;;;19.50;99.90;;;;;;4974521;28;20033;-67
2022/07/21 03:55:18;;;;;;;42.72;28.08;;;19.60;99.90;;;;;;4974217;28;20035;-70
2022/07/21 03:57:49;;;;;;;41.08;26.45;;;19.60;99.90;;;;;;4974248;28;20051;-67
2022/07/21 04:00:18;;;;;;;45.83;28.40;;;19.70;99.90;;;;;;4974416;28;20072;-67
2022/07/21 04:02:44;;;;;;;44.03;26.50;;;19.70;99.90;;;;;;4974360;28;20054;-67
2022/07/21 04:05:13;;;;;;;42.55;25.70;;;19.70;99.90;;;;;;4974343;28;20492;-67
2022/07/21 04:07:42;;;;;;;42.05;26.08;;;19.70;99.90;;;;;;4973962;28;20090;-68
2022/07/21 04:10:09;;;;;;;42.63;27.42;;;19.70;99.90;;;;;;4974274;28;20054;-71
2022/07/21 04:12:35;;;;;;;46.83;29.08;;;19.70;99.90;;;;;;4973592;28;20034;-67
2022/07/21 04:15:01;;;;;;;43.30;27.88;;;19.70;99.90;;;;;;4974343;28;20831;-68
2022/07/21 04:17:27;;;;;;;45.38;30.10;;;19.80;99.90;;;;;;4974266;28;20030;-67
2022/07/21 04:19:52;;;;;;;48.65;29.83;;;19.80;99.90;;;;;;4973852;28;20350;-68
2022/07/21 04:22:18;;;;;;;41.88;27.27;;;19.80;99.90;;;;;;4973866;28;20022;-67
2022/07/21 04:24:43;;;;;;;45.10;29.42;;;19.80;99.90;;;;;;4973779;28;20033;-70
2022/07/21 04:27:09;;;;;;;43.22;27.40;;;19.80;99.90;;;;;;4973303;28;20029;-67
2022/07/21 04:29:35;;;;;;;42.30;28.73;;;19.80;99.90;;;;;;4973030;28;20045;-69
2022/07/21 04:32:00;;;;;;;42.78;28.15;;;19.80;99.90;;;;;;4973972;28;20128;-67
2022/07/21 04:34:27;;;;;;;43.97;28.58;;;19.70;99.90;;;;;;4974064;28;20035;-67
2022/07/21 04:36:52;;;;;;;44.22;28.50;;;19.70;99.90;;;;;;4973041;28;20029;-69
2022/07/21 04:39:18;;;;;;;50.10;30.10;;;19.70;99.90;;;;;;4973612;28;20023;-68
2022/07/21 04:41:43;;;;;;;49.88;30.67;;;19.60;99.90;;;;;;4973781;28;20029;-68
2022/07/21 04:44:09;;;;;;;42.80;28.70;;;19.50;99.90;;;;;;4973737;28;20356;-71
2022/07/21 04:46:34;;;;;;;49.30;30.35;;;19.50;99.90;;;;;;4973221;28;20070;-68
2022/07/21 04:49:00;;;;;;;47.45;30.15;;;19.50;99.90;;;;;;4973254;28;20070;-69
2022/07/21 04:51:25;;;;;;;43.83;28.02;;;19.50;99.90;;;;;;4973414;28;20073;-69
2022/07/21 04:53:51;;;;;;;48.88;29.70;;;19.50;99.90;;;;;;4973153;28;20517;-66
2022/07/21 04:56:16;;;;;;;49.78;30.42;;;19.50;99.90;;;;;;4972383;28;20114;-68
2022/07/21 04:58:42;;;;;;;47.72;29.67;;;19.50;99.90;;;;;;4973125;28;20058;-68
2022/07/21 05:01:08;;;;;;;49.35;30.65;;;19.50;99.90;;;;;;4973138;28;20034;-68
2022/07/21 05:03:33;;;;;;;45.95;29.08;;;19.50;99.90;;;;;;4973394;28;20034;-69
2022/07/21 05:05:59;;;;;;;47.20;28.80;;;19.50;99.90;;;;;;4973616;28;20046;-68
2022/07/21 05:08:26;;;;;;;48.88;28.88;;;19.50;99.90;;;;;;4973439;28;20078;-68
2022/07/21 05:10:52;;;;;;;44.67;26.13;;;19.40;99.90;;;;;;4973716;28;20029;-69
2022/07/21 05:13:17;;;;;;;47.97;30.58;;;19.40;99.90;;;;;;4973598;28;20027;-71
2022/07/21 05:15:43;;;;;;;47.50;29.08;;;19.40;99.90;;;;;;4973540;28;20058;-67
2022/07/21 05:18:08;;;;;;;44.88;26.77;;;19.40;99.90;;;;;;4973832;28;20095;-69
2022/07/21 05:20:34;;;;;;;46.00;29.00;;;19.40;99.90;;;;;;4974202;28;20029;-70
2022/07/21 05:23:01;;;;;;;47.38;27.92;;;19.40;99.90;;;;;;4973898;28;20416;-70
2022/07/21 05:25:27;;;;;;;44.63;29.05;;;19.40;99.90;;;;;;4973229;28;20018;-69
2022/07/21 05:27:53;;;;;;;48.40;27.80;;;19.50;99.90;;;;;;4972960;28;20437;-71
2022/07/21 05:30:18;;;;;;;52.08;29.92;;;19.50;99.90;;;;;;4973396;28;20089;-68
2022/07/21 05:32:44;;;;;;;46.40;29.77;;;19.40;99.90;;;;;;4973344;28;20109;-68
2022/07/21 05:35:11;;;;;;;45.63;29.85;;;19.40;99.90;;;;;;4973326;28;20026;-69
2022/07/21 05:37:40;;;;;;;43.83;26.52;;;19.50;99.90;;;;;;4973276;28;20058;-71
2022/07/21 05:40:08;;;;;;;50.88;29.23;;;19.50;99.90;;;;;;4973235;28;20022;-72
2022/07/21 05:42:35;;;;;;;47.33;30.60;;;19.50;99.90;;;;;;4973137;28;20461;-69
2022/07/21 05:45:00;;;;;;;50.55;30.88;;;19.60;99.90;;;;;;4972967;28;20019;-69
2022/07/21 05:47:26;;;;;;;46.90;30.55;;;19.60;99.90;;;;;;4973160;28;20368;-69
2022/07/21 05:49:52;;;;;;;50.88;30.77;;;19.60;99.90;;;;;;4973144;28;20077;-69
2022/07/21 05:52:17;;;;;;;49.90;29.65;;;19.70;99.90;;;;;;4973274;28;20442;-69
2022/07/21 05:54:43;;;;;;;50.90;27.85;;;19.70;99.90;;;;;;4973207;28;20417;-71
2022/07/21 05:57:08;;;;;;;46.72;28.17;;;19.70;99.90;;;;;;4973358;28;20027;-69
2022/07/21 05:59:34;;;;;;;52.85;29.52;;;19.70;99.90;;;;;;4972854;28;20039;-69
2022/07/21 06:01:59;;;;;;;49.72;29.17;;;19.80;99.90;;;;;;4973241;28;20037;-69
2022/07/21 06:04:25;;;;;;;51.90;26.90;;;19.80;99.90;;;;;;4973010;28;20033;-69
2022/07/21 06:06:52;;;;;;;49.05;25.83;;;19.90;99.90;;;;;;4975474;28;20054;-68
2022/07/21 06:09:18;;;;;;;45.40;24.58;;;20.00;99.90;;;;;;4976454;28;20438;-68
2022/07/21 06:11:44;;;;;;;47.35;25.33;;;20.10;99.90;;;;;;4976796;28;20019;-70
2022/07/21 06:14:09;;;;;;;41.58;24.38;;;20.10;99.90;;;;;;4976719;28;20080;-68
2022/07/21 06:16:35;;;;;;;42.10;24.48;;;20.20;99.90;;;;;;4976762;28;20054;-69
2022/07/21 06:19:01;;;;;;;45.78;25.33;;;20.10;99.90;;;;;;4976582;28;20027;-67
2022/07/21 06:21:27;;;;;;;46.67;26.92;;;20.10;99.90;;;;;;4976335;28;20113;-67
2022/07/21 06:23:53;;;;;;;42.13;22.50;;;20.10;99.90;;;;;;4976281;28;20019;-68
2022/07/21 06:26:19;;;;;;;45.53;25.33;;;20.10;99.90;;;;;;4976449;28;20476;-68
2022/07/21 06:28:44;;;;;;;44.20;23.77;;;20.20;99.90;;;;;;4976404;28;20031;-67
2022/07/21 06:31:10;;;;;;;48.72;25.48;;;20.10;99.90;;;;;;4976483;28;20018;-68
2022/07/21 06:33:35;;;;;;;38.83;23.05;;;20.10;99.90;;;;;;4976369;28;20109;-67
2022/07/21 06:36:01;;;;;;;45.92;23.67;;;20.10;99.90;;;;;;4975953;28;20029;-70
2022/07/21 06:38:27;;;;;;;48.35;24.95;;;20.00;99.90;;;;;;4975943;28;20106;-68
2022/07/21 06:40:52;;;;;;;42.58;24.67;;;20.00;99.90;;;;;;4975966;28;20091;-69
2022/07/21 06:43:18;;;;;;;44.17;21.08;;;20.00;99.90;;;;;;4975951;28;20026;-68
2022/07/21 06:45:44;;;;;;;44.65;24.05;;;19.90;99.90;;;;;;4975860;28;20070;-69
2022/07/21 06:48:09;;;;;;;42.63;24.45;;;19.90;99.90;;;;;;4975956;28;20030;-69
2022/07/21 06:50:36;;;;;;;38.78;24.33;;;19.80;99.90;;;;;;4975968;28;20453;-70
2022/07/21 06:53:02;;;;;;;42.25;23.70;;;19.80;99.90;;;;;;4975798;28;20015;-69
2022/07/21 06:55:28;;;;;;;42.58;25.90;;;19.70;99.90;;;;;;4975463;28;20030;-69
2022/07/21 06:57:54;;;;;;;46.85;24.23;;;19.70;99.90;;;;;;4974506;28;20479;-69
2022/07/21 07:00:20;;;;;;;43.38;24.83;;;19.70;99.90;;;;;;4976010;28;20050;-69
2022/07/21 07:02:46;;;;;;;44.42;23.60;;;19.70;99.90;;;;;;4975131;28;20081;-69
2022/07/21 07:05:11;;;;;;;41.80;24.75;;;19.70;99.90;;;;;;4975701;28;20019;-69
2022/07/21 07:07:37;;;;;;;37.75;22.15;;;19.60;99.90;;;;;;4976025;28;20026;-69
2022/07/21 07:10:04;;;;;;;36.88;21.75;;;19.60;99.90;;;;;;4975083;28;20117;-68
2022/07/21 07:12:29;;;;;;;35.63;19.02;;;19.50;99.90;;;;;;4975446;28;20481;-69
2022/07/21 07:14:55;;;;;;;33.45;19.25;;;19.40;99.90;;;;;;4975155;28;20102;-69
2022/07/21 07:17:20;;;;;;;34.80;20.20;;;19.40;99.90;;;;;;4974801;28;20426;-68
2022/07/21 07:19:47;;;;;;;36.33;22.50;;;19.30;99.90;;;;;;4975132;28;20027;-68
2022/07/21 07:22:13;;;;;;;37.00;20.77;;;19.30;99.90;;;;;;4975195;28;20022;-68
2022/07/21 07:24:39;;;;;;;33.85;21.50;;;19.30;99.90;;;;;;4973955;28;20023;-68
2022/07/21 07:27:04;;;;;;;31.98;19.65;;;19.30;99.90;;;;;;4975452;28;20030;-69
2022/07/21 07:29:31;;;;;;;33.75;19.30;;;19.30;99.90;;;;;;4975159;28;20475;-69
2022/07/21 07:31:57;;;;;;;30.00;18.63;;;19.30;99.90;;;;;;4975057;28;20369;-69
2022/07/21 07:34:23;;;;;;;30.45;18.25;;;19.30;99.90;;;;;;4975100;28;20453;-68
2022/07/21 07:36:49;;;;;;;31.85;17.45;;;19.30;99.90;;;;;;4975260;28;20102;-68
2022/07/21 07:39:17;;;;;;;32.13;18.92;;;19.40;99.90;;;;;;4975095;28;20027;-70
2022/07/21 07:41:43;;;;;;;30.75;17.25;;;19.40;99.90;;;;;;4975216;28;20033;-68
2022/07/21 07:44:09;;;;;;;33.20;16.92;;;19.40;99.90;;;;;;4975036;28;20022;-68
2022/07/21 07:46:35;;;;;;;29.40;17.02;;;19.40;99.90;;;;;;4974898;28;20466;-68
2022/07/21 07:49:01;;;;;;;30.48;16.05;;;19.40;99.90;;;;;;4975006;28;20031;-69
2022/07/21 07:51:26;;;;;;;24.63;14.55;;;19.40;99.90;;;;;;4974514;28;20035;-68
2022/07/21 07:53:52;;;;;;;22.75;13.27;;;19.30;99.90;;;;;;4968850;28;20106;-70
2022/07/21 07:56:18;;;;;;;21.60;12.20;;;19.30;99.90;;;;;;4974563;28;20078;-68
2022/07/21 07:58:43;;;;;;;16.77;9.73;;;19.30;99.90;;;;;;4974631;28;20027;-69
2022/07/21 08:01:09;;;;;;;22.63;9.18;;;19.30;99.90;;;;;;4974509;28;20054;-69
2022/07/21 08:03:35;;;;;;;16.15;8.27;;;19.20;99.90;;;;;;4974766;28;20022;-70
2022/07/21 08:06:03;;;;;;;16.73;8.18;;;19.20;99.90;;;;;;4974085;28;20030;-68
2022/07/21 08:08:30;;;;;;;15.95;8.75;;;19.30;99.90;;;;;;4974504;28;20472;-69
2022/07/21 08:10:56;;;;;;;18.58;8.57;;;19.30;99.90;;;;;;4974169;28;20031;-69
2022/07/21 08:13:22;;;;;;;16.27;7.90;;;19.30;99.90;;;;;;4974445;28;20358;-68
2022/07/21 08:15:49;;;;;;;18.08;7.53;;;19.30;99.90;;;;;;4974575;28;20154;-69
2022/07/21 08:18:16;;;;;;;11.88;6.25;;;19.20;99.90;;;;;;4974575;28;20046;-69
2022/07/21 08:20:41;;;;;;;14.60;6.65;;;19.10;99.90;;;;;;4974147;28;20476;-69
2022/07/21 08:23:07;;;;;;;15.32;7.25;;;19.10;99.90;;;;;;4974357;28;20031;-68
2022/07/21 08:25:33;;;;;;;14.35;7.50;;;19.00;99.90;;;;;;4974318;28;20341;-68
2022/07/21 08:27:59;;;;;;;16.10;7.47;;;19.00;99.90;;;;;;4973953;28;20027;-71
2022/07/21 08:30:25;;;;;;;17.42;8.23;;;19.00;99.90;;;;;;4973745;28;20037;-68
2022/07/21 08:32:51;;;;;;;18.98;9.05;;;19.00;99.90;;;;;;4974336;28;20101;-71
2022/07/21 08:35:17;;;;;;;16.33;8.75;;;19.00;99.90;;;;;;4975054;28;20106;-68
2022/07/21 08:37:55;;;;;;;18.63;8.70;;;19.00;99.90;;;;;;4975558;28;20081;-71
2022/07/21 08:40:24;;;;;;;17.05;9.55;;;19.00;99.90;;;;;;4974532;28;20019;-69
2022/07/21 08:42:51;;;;;;;19.98;9.70;;;19.00;99.90;;;;;;4968092;28;20015;-70
2022/07/21 08:45:16;;;;;;;21.58;10.20;;;19.10;99.90;;;;;;4973356;28;20051;-69
2022/07/21 08:47:42;;;;;;;22.23;10.20;;;19.00;99.90;;;;;;4973947;28;20532;-71
2022/07/21 08:50:08;;;;;;;19.90;10.05;;;19.00;99.90;;;;;;4973743;28;20361;-72
2022/07/21 08:52:34;;;;;;;21.35;10.00;;;18.90;99.90;;;;;;4973775;28;20026;-70
2022/07/21 08:55:00;;;;;;;22.92;10.80;;;18.90;99.90;;;;;;4974119;28;20418;-70
2022/07/21 08:57:26;;;;;;;23.80;10.60;;;18.90;99.90;;;;;;4973905;28;20023;-68
2022/07/21 08:59:52;;;;;;;21.52;11.23;;;18.90;99.90;;;;;;4973712;28;20031;-69
2022/07/21 09:02:32;;;;;;;21.45;9.40;;;18.90;99.90;;;;;;4973759;28;20019;-69
2022/07/21 09:04:57;;;;;;;20.17;10.00;;;18.90;99.90;;;;;;4973864;28;20034;-69
2022/07/21 09:07:23;;;;;;;19.98;10.32;;;18.90;99.90;;;;;;4973907;28;20034;-73
2022/07/21 09:10:03;;;;;;;20.02;9.27;;;18.90;99.90;;;;;;4973786;28;20066;-70
2022/07/21 09:12:29;;;;;;;25.95;10.77;;;18.90;99.90;;;;;;4973793;28;20046;-71
2022/07/21 09:15:16;;;;;;;23.77;11.38;;;18.90;99.90;;;;;;4973567;28;20122;-70
2022/07/21 09:17:42;;;;;;;22.13;10.77;;;18.90;99.90;;;;;;4973456;28;20030;-71
2022/07/21 09:20:22;;;;;;;20.77;11.25;;;18.90;99.90;;;;;;4973593;28;20022;-70
2022/07/21 09:23:21;;;;;;;19.13;10.27;;;18.90;99.90;;;;;;4973629;28;20023;-70
2022/07/21 09:25:49;;;;;;;22.27;10.52;;;18.90;99.90;;;;;;4961721;28;20061;-74
2022/07/21 09:28:19;;;;;;;20.58;10.05;;;19.00;99.90;;;;;;4973838;28;20030;-70
2022/07/21 09:30:58;;;;;;;22.15;10.18;;;19.00;99.90;;;;;;4973626;28;20023;-69
2022/07/21 09:33:42;;;;;;;17.65;9.57;;;19.00;99.90;;;;;;4966990;28;20037;-70
2022/07/21 09:36:12;;;;;;;17.25;8.43;;;19.00;99.90;;;;;;4973683;28;20023;-69
2022/07/21 09:38:44;;;;;;;16.15;8.07;;;19.00;99.90;;;;;;4973633;28;20109;-70
2022/07/21 09:41:15;;;;;;;18.70;7.90;;;19.00;99.90;;;;;;4974926;28;20027;-71
2022/07/21 09:43:44;;;;;;;16.80;7.13;;;19.00;99.90;;;;;;4977830;28;20097;-71
2022/07/21 09:46:20;;;;;;;17.98;7.80;;;19.00;99.90;;;;;;4977262;28;20073;-71
2022/07/21 09:48:48;;;;;;;12.93;6.47;;;19.10;99.90;;;;;;4977237;28;20460;-70
2022/07/21 09:51:21;;;;;;;13.82;7.07;;;19.10;99.90;;;;;;4977272;28;20452;-70
2022/07/21 09:53:58;;;;;;;16.17;7.18;;;19.10;99.90;;;;;;4976955;28;20496;-73
2022/07/21 09:56:25;;;;;;;14.45;6.60;;;19.10;99.90;;;;;;4977355;28;20042;-74
2022/07/21 09:58:53;;;;;;;16.70;5.97;;;19.00;99.90;;;;;;4977420;28;20027;-72
2022/07/21 10:01:19;;;;;;;14.13;6.28;;;19.10;99.90;;;;;;4977252;28;20018;-72
2022/07/21 10:03:47;;;;;;;15.30;5.72;;;19.10;99.90;;;;;;4976954;28;20364;-72
2022/07/21 10:06:15;;;;;;;10.95;5.70;;;19.20;99.90;;;;;;4977057;28;20019;-71
2022/07/21 10:08:42;;;;;;;12.73;5.25;;;19.30;99.90;;;;;;4977117;28;20034;-72
2022/07/21 10:11:08;;;;;;;10.73;5.35;;;19.40;99.90;;;;;;4976800;28;20102;-71
2022/07/21 10:13:37;;;;;;;10.52;5.18;;;19.30;99.90;;;;;;4976888;28;20106;-71
2022/07/21 10:16:03;;;;;;;15.25;5.47;;;19.30;99.90;;;;;;4977092;28;20023;-72
2022/07/21 10:18:35;;;;;;;16.58;5.57;;;19.40;99.90;;;;;;4977006;28;20031;-72
2022/07/21 10:21:37;;;;;;;10.63;4.95;;;19.50;99.90;;;;;;4976832;28;20023;-72
2022/07/21 10:24:04;;;;;;;13.85;4.47;;;19.60;99.90;;;;;;4976424;28;20037;-72
2022/07/21 10:26:30;;;;;;;9.80;4.10;;;19.60;99.90;;;;;;4976615;28;20053;-72
2022/07/21 10:28:55;;;;;;;12.77;4.57;;;19.70;99.90;;;;;;4976429;28;20381;-72
2022/07/21 10:31:27;;;;;;;9.07;4.45;;;19.70;99.90;;;;;;4974489;28;20377;-72
2022/07/21 10:33:55;;;;;;;10.33;4.77;;;19.70;99.90;;;;;;4976157;28;20039;-71
2022/07/21 10:36:26;;;;;;;7.80;4.32;;;19.80;99.90;;;;;;4976482;28;20260;-70
2022/07/21 10:39:08;;;;;;;7.33;4.17;;;19.90;99.90;;;;;;4976353;28;20098;-71
2022/07/21 10:41:42;;;;;;;9.75;4.20;;;20.00;99.90;;;;;;4976264;28;20025;-73
2022/07/21 10:44:26;;;;;;;9.50;4.55;;;20.00;99.90;;;;;;4974764;28;20031;-72
2022/07/21 10:47:11;;;;;;;8.43;3.63;;;20.10;99.90;;;;;;4975902;28;20038;-71
2022/07/21 10:49:44;;;;;;;10.80;5.47;;;20.10;99.90;;;;;;4956850;28;20039;-71
2022/07/21 10:52:35;;;;;;;8.32;4.80;;;20.20;99.90;;;;;;4956098;28;20504;-70
2022/07/21 10:55:17;;;;;;;8.10;4.05;;;20.30;99.90;;;;;;4955535;28;20360;-69
2022/07/21 10:57:47;;;;;;;11.02;4.53;;;20.30;99.90;;;;;;4970483;28;20025;-71
2022/07/21 11:00:27;;;;;;;9.23;4.95;;;20.40;99.90;;;;;;4974466;28;20047;-70
2022/07/21 11:02:59;;;;;;;10.75;5.43;;;20.40;99.90;;;;;;4975976;28;20106;-72
2022/07/21 11:05:27;;;;;;;10.63;4.93;;;20.40;99.90;;;;;;4975543;28;20070;-72
2022/07/21 11:08:12;;;;;;;13.13;5.97;;;20.50;99.90;;;;;;4975691;28;20429;-71
2022/07/21 11:10:40;;;;;;;8.90;5.55;;;20.60;99.90;;;;;;4975698;28;20115;-72
2022/07/21 11:13:06;;;;;;;11.50;4.65;;;20.70;99.90;;;;;;4975421;28;20113;-71
2022/07/21 11:15:56;;;;;;;9.27;4.57;;;20.80;99.90;;;;;;4975412;28;20425;-70
2022/07/21 11:18:25;;;;;;;8.18;4.10;;;20.80;99.90;;;;;;4974518;28;20140;-71
2022/07/21 11:21:06;;;;;;;8.43;3.80;;;20.70;99.90;;;;;;4973423;28;20027;-72
2022/07/21 11:23:49;;;;;;;8.57;3.80;;;20.60;99.90;;;;;;4975054;28;20027;-70
2022/07/21 11:26:17;;;;;;;8.60;3.47;;;20.60;99.90;;;;;;4975270;28;20022;-71
2022/07/21 11:28:45;;;;;;;13.35;3.85;;;20.50;99.90;;;;;;4975035;28;20069;-71
2022/07/21 11:31:24;;;;;;;6.40;3.05;;;20.50;99.90;;;;;;4975522;28;20038;-71
2022/07/21 11:33:49;;;;;;;7.70;2.90;;;20.40;99.90;;;;;;4973765;28;20409;-71
2022/07/21 11:36:30;;;;;;;6.05;2.53;;;20.40;99.90;;;;;;4973895;28;20019;-72
2022/07/21 11:39:02;;;;;;;7.43;2.85;;;20.40;99.90;;;;;;4975014;28;20023;-72
2022/07/21 11:41:28;;;;;;;8.43;2.88;;;20.30;99.90;;;;;;4975035;28;20081;-72
2022/07/21 11:43:54;;;;;;;10.77;3.55;;;20.30;99.90;;;;;;4975255;28;20030;-72
2022/07/21 11:46:19;;;;;;;8.20;3.15;;;20.20;99.90;;;;;;4974929;28;20049;-73
2022/07/21 11:48:47;;;;;;;17.38;4.45;;;20.20;99.90;;;;;;4974746;28;20369;-73
2022/07/21 11:51:13;;;;;;;5.32;3.20;;;20.10;99.90;;;;;;4971732;28;20038;-75
2022/07/21 11:53:45;;;;;;;9.57;3.50;;;20.10;99.90;;;;;;4974716;28;20026;-71
2022/07/21 11:56:15;;;;;;;7.97;3.03;;;20.00;99.90;;;;;;4975054;28;20026;-72
2022/07/21 11:58:42;;;;;;;8.93;3.28;;;19.90;99.90;;;;;;4974907;28;20117;-72
2022/07/21 12:01:09;;;;;;;10.00;3.67;;;19.90;99.90;;;;;;4974513;28;20027;-75
2022/07/21 12:03:47;;;;;;;11.20;4.15;;;19.80;99.90;;;;;;4974233;28;20465;-74
2022/07/21 12:06:13;;;;;;;9.43;3.97;;;19.90;99.90;;;;;;4973096;28;20035;-72
2022/07/21 12:08:39;;;;;;;9.38;4.55;;;19.90;99.90;;;;;;4970750;28;20472;-73
2022/07/21 12:11:08;;;;;;;12.55;4.75;;;19.90;99.90;;;;;;4974467;28;20027;-73
2022/07/21 12:13:57;;;;;;;10.25;4.97;;;19.90;99.90;;;;;;4974539;28;20126;-73
2022/07/21 12:16:23;;;;;;;12.50;4.85;;;19.90;99.90;;;;;;4974627;28;20038;-73
2022/07/21 12:19:05;;;;;;;10.25;5.18;;;19.90;99.90;;;;;;4974308;28;20023;-73
2022/07/21 12:21:50;;;;;;;13.80;5.43;;;19.90;99.90;;;;;;4974850;28;20095;-73
2022/07/21 12:24:16;;;;;;;8.35;5.03;;;20.00;99.90;;;;;;4973987;28;20065;-74
2022/07/21 12:26:42;;;;;;;13.05;5.30;;;20.00;99.90;;;;;;4974358;28;20110;-72
2022/07/21 12:29:08;;;;;;;15.35;6.20;;;20.10;99.90;;;;;;4974326;28;20113;-75
2022/07/21 12:31:35;;;;;;;13.63;5.90;;;20.30;99.90;;;;;;4972948;28;20022;-73
2022/07/21 12:34:15;;;;;;;12.68;6.03;;;20.60;99.90;;;;;;4974114;28;20019;-74
2022/07/21 12:36:45;;;;;;;12.15;5.95;;;20.80;99.90;;;;;;4972947;28;20027;-73
2022/07/21 12:42:05;;;;;;;12.15;6.10;;;21.00;99.90;;;;;;4973967;28;20385;-73